sensor_id;sensor_type;location;lat;lon;timestamp;temperature;humidity
8856;DHT22;4464;50.882;4.730;2023-01-15T00:01:38;8.30;99.90
8856;DHT22;4464;50.882;4.730;2023-01-15T00:04:05;8.30;99.90
8856;DHT22;4464;50.882;4.730;2023-01-15T00:06:36;8.30;99.90
8856;DHT22;4464;50.882;4.730;2023-01-15T00:09:03;8.30;99.90
8856;DHT22;4464;50.882;4.730;2023-01-15T00:11:29;8.30;99.90
8856;DHT22;4464;50.882;4.730;2023-01-15T00:13:55;8.30;99.90
8856;DHT22;4464;50.882;4.730;2023-01-15T00:16:23;8.30;99.90
8856;DHT22;4464;50.882;4.730;2023-01-15T00:18:51;8.30;99.90
8856;DHT22;4464;50.882;4.730;2023-01-15T00:21:18;8.20;99.90
8856;DHT22;4464;50.882;4.730;2023-01-15T00:23:44;8.20;99.90
8856;DHT22;4464;50.882;4.730;2023-01-15T00:26:30;8.30;99.90
8856;DHT22;4464;50.882;4.730;2023-01-15T00:29:15;8.20;99.90
8856;DHT22;4464;50.882;4.730;2023-01-15T00:31:51;8.20;99.90
8856;DHT22;4464;50.882;4.730;2023-01-15T00:34:18;8.20;99.90
8856;DHT22;4464;50.882;4.730;2023-01-15T00:36:44;8.30;99.90
8856;DHT22;4464;50.882;4.730;2023-01-15T00:39:12;8.30;99.90
8856;DHT22;4464;50.882;4.730;2023-01-15T00:41:40;8.30;99.90
8856;DHT22;4464;50.882;4.730;2023-01-15T00:44:06;8.30;99.90
8856;DHT22;4464;50.882;4.730;2023-01-15T00:46:32;8.30;99.90
8856;DHT22;4464;50.882;4.730;2023-01-15T00:49:04;8.30;99.90
8856;DHT22;4464;50.882;4.730;2023-01-15T00:51:31;8.30;99.90
8856;DHT22;4464;50.882;4.730;2023-01-15T00:53:57;8.30;99.90
8856;DHT22;4464;50.882;4.730;2023-01-15T00:56:26;8.30;99.90
8856;DHT22;4464;50.882;4.730;2023-01-15T00:58:52;8.30;99.90
8856;DHT22;4464;50.882;4.730;2023-01-15T01:01:18;8.30;99.90
8856;DHT22;4464;50.882;4.730;2023-01-15T01:03:44;8.30;99.90
8856;DHT22;4464;50.882;4.730;2023-01-15T01:06:15;8.30;99.90
8856;DHT22;4464;50.882;4.730;2023-01-15T01:08:42;8.30;99.90
8856;DHT22;4464;50.882;4.730;2023-01-15T01:11:15;8.40;99.90
8856;DHT22;4464;50.882;4.730;2023-01-15T01:13:42;8.40;99.90
8856;DHT22;4464;50.882;4.730;2023-01-15T01:18:48;8.40;99.90
8856;DHT22;4464;50.882;4.730;2023-01-15T01:21:14;8.50;99.90
8856;DHT22;4464;50.882;4.730;2023-01-15T01:23:42;8.50;99.90
8856;DHT22;4464;50.882;4.730;2023-01-15T01:26:08;8.50;99.90
8856;DHT22;4464;50.882;4.730;2023-01-15T01:28:37;8.50;99.90
8856;DHT22;4464;50.882;4.730;2023-01-15T01:31:07;8.50;99.90
8856;DHT22;4464;50.882;4.730;2023-01-15T01:33:34;8.50;99.90
8856;DHT22;4464;50.882;4.730;2023-01-15T01:36:00;8.50;99.90
8856;DHT22;4464;50.882;4.730;2023-01-15T01:38:29;8.50;99.90
8856;DHT22;4464;50.882;4.730;2023-01-15T01:40:54;8.50;99.90
8856;DHT22;4464;50.882;4.730;2023-01-15T01:43:24;8.50;99.90
8856;DHT22;4464;50.882;4.730;2023-01-15T01:45:50;8.50;99.90
8856;DHT22;4464;50.882;4.730;2023-01-15T01:48:18;8.50;99.90
8856;DHT22;4464;50.882;4.730;2023-01-15T01:50:49;8.50;99.90
8856;DHT22;4464;50.882;4.730;2023-01-15T01:53:26;8.40;99.90
8856;DHT22;4464;50.882;4.730;2023-01-15T01:55:54;8.40;99.90
8856;DHT22;4464;50.882;4.730;2023-01-15T01:58:22;8.40;99.90
8856;DHT22;4464;50.882;4.730;2023-01-15T02:00:51;8.30;99.90
8856;DHT22;4464;50.882;4.730;2023-01-15T02:03:24;8.30;99.90
8856;DHT22;4464;50.882;4.730;2023-01-15T02:05:55;8.30;99.90
8856;DHT22;4464;50.882;4.730;2023-01-15T02:08:23;8.30;99.90
8856;DHT22;4464;50.882;4.730;2023-01-15T02:10:55;8.20;99.90
8856;DHT22;4464;50.882;4.730;2023-01-15T02:16:21;8.20;99.90
8856;DHT22;4464;50.882;4.730;2023-01-15T02:18:50;8.20;99.90
8856;DHT22;4464;50.882;4.730;2023-01-15T02:21:47;8.10;99.90
8856;DHT22;4464;50.882;4.730;2023-01-15T02:24:30;8.10;99.90
8856;DHT22;4464;50.882;4.730;2023-01-15T02:27:06;8.10;99.90
8856;DHT22;4464;50.882;4.730;2023-01-15T02:29:43;8.10;99.90
8856;DHT22;4464;50.882;4.730;2023-01-15T02:32:20;8.00;99.90
8856;DHT22;4464;50.882;4.730;2023-01-15T02:34:53;8.00;99.90
8856;DHT22;4464;50.882;4.730;2023-01-15T02:37:29;8.00;99.90
8856;DHT22;4464;50.882;4.730;2023-01-15T02:40:02;8.00;99.90
8856;DHT22;4464;50.882;4.730;2023-01-15T02:42:33;8.00;99.90
8856;DHT22;4464;50.882;4.730;2023-01-15T02:45:01;8.00;99.90
8856;DHT22;4464;50.882;4.730;2023-01-15T02:47:32;8.00;99.90
8856;DHT22;4464;50.882;4.730;2023-01-15T02:50:05;7.90;99.90
8856;DHT22;4464;50.882;4.730;2023-01-15T02:52:34;7.90;99.90
8856;DHT22;4464;50.882;4.730;2023-01-15T02:55:17;7.90;99.90
8856;DHT22;4464;50.882;4.730;2023-01-15T02:57:46;7.80;99.90
8856;DHT22;4464;50.882;4.730;2023-01-15T03:00:16;7.80;99.90
8856;DHT22;4464;50.882;4.730;2023-01-15T03:02:53;7.80;99.90
8856;DHT22;4464;50.882;4.730;2023-01-15T03:05:27;7.80;99.90
8856;DHT22;4464;50.882;4.730;2023-01-15T03:07:59;7.70;99.90
8856;DHT22;4464;50.882;4.730;2023-01-15T03:13:04;7.70;99.90
8856;DHT22;4464;50.882;4.730;2023-01-15T03:15:54;7.70;99.90
8856;DHT22;4464;50.882;4.730;2023-01-15T03:18:52;7.70;99.90
8856;DHT22;4464;50.882;4.730;2023-01-15T03:21:31;7.70;99.90
8856;DHT22;4464;50.882;4.730;2023-01-15T03:24:00;7.70;99.90
8856;DHT22;4464;50.882;4.730;2023-01-15T03:26:27;7.70;99.90
8856;DHT22;4464;50.882;4.730;2023-01-15T03:28:55;7.70;99.90
8856;DHT22;4464;50.882;4.730;2023-01-15T03:31:26;7.60;99.90
8856;DHT22;4464;50.882;4.730;2023-01-15T03:33:53;7.60;99.90
8856;DHT22;4464;50.882;4.730;2023-01-15T03:36:19;7.60;99.90
8856;DHT22;4464;50.882;4.730;2023-01-15T03:38:45;7.60;99.90
8856;DHT22;4464;50.882;4.730;2023-01-15T03:44:06;7.60;99.90
8856;DHT22;4464;50.882;4.730;2023-01-15T03:57:57;7.50;99.90
8856;DHT22;4464;50.882;4.730;2023-01-15T04:00:35;7.60;99.90
8856;DHT22;4464;50.882;4.730;2023-01-15T04:03:07;7.60;99.90
8856;DHT22;4464;50.882;4.730;2023-01-15T04:05:40;7.60;99.90
8856;DHT22;4464;50.882;4.730;2023-01-15T04:08:07;7.60;99.90
8856;DHT22;4464;50.882;4.730;2023-01-15T04:10:36;7.60;99.90
8856;DHT22;4464;50.882;4.730;2023-01-15T04:13:05;7.60;99.90
8856;DHT22;4464;50.882;4.730;2023-01-15T04:15:31;7.60;99.90
8856;DHT22;4464;50.882;4.730;2023-01-15T04:17:57;7.60;99.90
8856;DHT22;4464;50.882;4.730;2023-01-15T04:20:22;7.50;99.90
8856;DHT22;4464;50.882;4.730;2023-01-15T04:22:49;7.50;99.90
8856;DHT22;4464;50.882;4.730;2023-01-15T04:25:15;7.40;99.90
8856;DHT22;4464;50.882;4.730;2023-01-15T04:27:40;7.40;99.90
8856;DHT22;4464;50.882;4.730;2023-01-15T04:30:07;7.40;99.90
8856;DHT22;4464;50.882;4.730;2023-01-15T04:32:32;7.40;99.90
8856;DHT22;4464;50.882;4.730;2023-01-15T04:34:59;7.40;99.90
8856;DHT22;4464;50.882;4.730;2023-01-15T04:37:25;7.40;99.90
8856;DHT22;4464;50.882;4.730;2023-01-15T04:39:55;7.40;99.90
8856;DHT22;4464;50.882;4.730;2023-01-15T04:42:21;7.40;99.90
8856;DHT22;4464;50.882;4.730;2023-01-15T04:45:05;7.40;99.90
8856;DHT22;4464;50.882;4.730;2023-01-15T04:47:31;7.40;99.90
8856;DHT22;4464;50.882;4.730;2023-01-15T04:49:57;7.40;99.90
8856;DHT22;4464;50.882;4.730;2023-01-15T04:52:26;7.40;99.90
8856;DHT22;4464;50.882;4.730;2023-01-15T04:54:54;7.40;99.90
8856;DHT22;4464;50.882;4.730;2023-01-15T04:57:23;7.40;99.90
8856;DHT22;4464;50.882;4.730;2023-01-15T04:59:48;7.40;99.90
8856;DHT22;4464;50.882;4.730;2023-01-15T05:02:14;7.40;99.90
8856;DHT22;4464;50.882;4.730;2023-01-15T05:04:40;7.30;99.90
8856;DHT22;4464;50.882;4.730;2023-01-15T05:07:10;7.40;99.90
8856;DHT22;4464;50.882;4.730;2023-01-15T05:09:36;7.40;99.90
8856;DHT22;4464;50.882;4.730;2023-01-15T05:12:03;7.40;99.90
8856;DHT22;4464;50.882;4.730;2023-01-15T05:14:31;7.40;99.90
8856;DHT22;4464;50.882;4.730;2023-01-15T05:16:58;7.40;99.90
8856;DHT22;4464;50.882;4.730;2023-01-15T05:19:24;7.30;99.90
8856;DHT22;4464;50.882;4.730;2023-01-15T05:21:50;7.30;99.90
8856;DHT22;4464;50.882;4.730;2023-01-15T05:24:19;7.30;99.90
8856;DHT22;4464;50.882;4.730;2023-01-15T05:26:44;7.30;99.90
8856;DHT22;4464;50.882;4.730;2023-01-15T05:29:11;7.20;99.90
8856;DHT22;4464;50.882;4.730;2023-01-15T05:31:40;7.20;99.90
8856;DHT22;4464;50.882;4.730;2023-01-15T05:34:08;7.20;99.90
8856;DHT22;4464;50.882;4.730;2023-01-15T05:36:34;7.10;99.90
8856;DHT22;4464;50.882;4.730;2023-01-15T05:39:02;7.10;99.90
8856;DHT22;4464;50.882;4.730;2023-01-15T05:41:28;7.10;99.90
8856;DHT22;4464;50.882;4.730;2023-01-15T05:44:15;7.10;99.90
8856;DHT22;4464;50.882;4.730;2023-01-15T05:46:42;7.00;99.90
8856;DHT22;4464;50.882;4.730;2023-01-15T05:49:14;7.00;99.90
8856;DHT22;4464;50.882;4.730;2023-01-15T05:51:43;7.00;99.90
8856;DHT22;4464;50.882;4.730;2023-01-15T05:54:14;6.90;99.90
8856;DHT22;4464;50.882;4.730;2023-01-15T05:56:45;6.90;99.90
8856;DHT22;4464;50.882;4.730;2023-01-15T05:59:12;6.90;99.90
8856;DHT22;4464;50.882;4.730;2023-01-15T06:01:43;6.80;99.90
8856;DHT22;4464;50.882;4.730;2023-01-15T06:04:10;6.80;99.90
8856;DHT22;4464;50.882;4.730;2023-01-15T06:06:39;6.80;99.90
8856;DHT22;4464;50.882;4.730;2023-01-15T06:09:05;6.90;99.90
8856;DHT22;4464;50.882;4.730;2023-01-15T06:11:33;6.90;99.90
8856;DHT22;4464;50.882;4.730;2023-01-15T06:13:59;6.90;99.90
8856;DHT22;4464;50.882;4.730;2023-01-15T06:16:25;6.80;99.90
8856;DHT22;4464;50.882;4.730;2023-01-15T06:18:54;6.60;99.90
8856;DHT22;4464;50.882;4.730;2023-01-15T06:21:22;6.50;99.90
8856;DHT22;4464;50.882;4.730;2023-01-15T06:23:48;6.30;99.90
8856;DHT22;4464;50.882;4.730;2023-01-15T06:26:16;6.10;99.90
8856;DHT22;4464;50.882;4.730;2023-01-15T06:28:43;5.90;99.90
8856;DHT22;4464;50.882;4.730;2023-01-15T06:31:16;5.70;99.90
8856;DHT22;4464;50.882;4.730;2023-01-15T06:33:43;5.60;99.90
8856;DHT22;4464;50.882;4.730;2023-01-15T06:36:16;5.60;99.90
8856;DHT22;4464;50.882;4.730;2023-01-15T06:38:43;5.60;99.90
8856;DHT22;4464;50.882;4.730;2023-01-15T06:41:15;5.60;99.90
8856;DHT22;4464;50.882;4.730;2023-01-15T06:44:00;5.60;99.90
8856;DHT22;4464;50.882;4.730;2023-01-15T06:46:50;5.50;99.90
8856;DHT22;4464;50.882;4.730;2023-01-15T06:49:35;5.50;99.90
8856;DHT22;4464;50.882;4.730;2023-01-15T06:52:05;5.40;99.90
8856;DHT22;4464;50.882;4.730;2023-01-15T06:54:33;5.40;99.90
8856;DHT22;4464;50.882;4.730;2023-01-15T06:57:01;5.30;99.90
8856;DHT22;4464;50.882;4.730;2023-01-15T06:59:33;5.30;99.90
8856;DHT22;4464;50.882;4.730;2023-01-15T07:01:59;5.30;99.90
8856;DHT22;4464;50.882;4.730;2023-01-15T07:04:28;5.30;99.90
8856;DHT22;4464;50.882;4.730;2023-01-15T07:06:57;5.20;99.90
8856;DHT22;4464;50.882;4.730;2023-01-15T07:09:23;5.20;99.90
8856;DHT22;4464;50.882;4.730;2023-01-15T07:11:51;5.20;99.90
8856;DHT22;4464;50.882;4.730;2023-01-15T07:14:22;5.20;99.90
8856;DHT22;4464;50.882;4.730;2023-01-15T07:16:48;5.20;99.90
8856;DHT22;4464;50.882;4.730;2023-01-15T07:19:15;5.20;99.90
8856;DHT22;4464;50.882;4.730;2023-01-15T07:21:41;5.30;99.90
8856;DHT22;4464;50.882;4.730;2023-01-15T07:24:10;5.30;99.90
8856;DHT22;4464;50.882;4.730;2023-01-15T07:26:37;5.30;99.90
8856;DHT22;4464;50.882;4.730;2023-01-15T07:29:04;5.30;99.90
8856;DHT22;4464;50.882;4.730;2023-01-15T07:31:30;5.30;99.90
8856;DHT22;4464;50.882;4.730;2023-01-15T07:33:56;5.30;99.90
8856;DHT22;4464;50.882;4.730;2023-01-15T07:36:24;5.30;99.90
8856;DHT22;4464;50.882;4.730;2023-01-15T07:38:51;5.30;99.90
8856;DHT22;4464;50.882;4.730;2023-01-15T07:41:17;5.30;99.90
8856;DHT22;4464;50.882;4.730;2023-01-15T07:44:01;5.40;99.90
8856;DHT22;4464;50.882;4.730;2023-01-15T07:46:45;5.40;99.90
8856;DHT22;4464;50.882;4.730;2023-01-15T07:49:30;5.40;99.90
8856;DHT22;4464;50.882;4.730;2023-01-15T07:52:12;5.30;99.90
8856;DHT22;4464;50.882;4.730;2023-01-15T07:54:41;5.30;99.90
8856;DHT22;4464;50.882;4.730;2023-01-15T07:57:07;5.40;99.90
8856;DHT22;4464;50.882;4.730;2023-01-15T07:59:36;5.30;99.90
8856;DHT22;4464;50.882;4.730;2023-01-15T08:02:05;5.40;99.90
8856;DHT22;4464;50.882;4.730;2023-01-15T08:04:31;5.40;99.90
8856;DHT22;4464;50.882;4.730;2023-01-15T08:07:01;5.40;99.90
8856;DHT22;4464;50.882;4.730;2023-01-15T08:09:28;5.40;99.90
8856;DHT22;4464;50.882;4.730;2023-01-15T08:11:54;5.40;99.90
8856;DHT22;4464;50.882;4.730;2023-01-15T08:14:39;5.40;99.90
8856;DHT22;4464;50.882;4.730;2023-01-15T08:17:26;5.40;99.90
8856;DHT22;4464;50.882;4.730;2023-01-15T08:19:54;5.40;99.90
8856;DHT22;4464;50.882;4.730;2023-01-15T08:22:20;5.30;99.90
8856;DHT22;4464;50.882;4.730;2023-01-15T08:24:46;5.40;99.90
8856;DHT22;4464;50.882;4.730;2023-01-15T08:27:12;5.40;99.90
8856;DHT22;4464;50.882;4.730;2023-01-15T08:29:41;5.40;99.90
8856;DHT22;4464;50.882;4.730;2023-01-15T08:32:09;5.50;99.90
8856;DHT22;4464;50.882;4.730;2023-01-15T08:34:40;5.70;99.90
8856;DHT22;4464;50.882;4.730;2023-01-15T08:37:09;6.00;99.90
8856;DHT22;4464;50.882;4.730;2023-01-15T08:39:35;6.00;99.90
8856;DHT22;4464;50.882;4.730;2023-01-15T08:42:00;6.00;99.90
8856;DHT22;4464;50.882;4.730;2023-01-15T08:44:27;6.20;99.90
8856;DHT22;4464;50.882;4.730;2023-01-15T08:46:52;6.40;99.90
8856;DHT22;4464;50.882;4.730;2023-01-15T08:49:19;6.70;99.90
8856;DHT22;4464;50.882;4.730;2023-01-15T08:51:45;6.90;99.90
8856;DHT22;4464;50.882;4.730;2023-01-15T08:54:20;7.00;99.90
8856;DHT22;4464;50.882;4.730;2023-01-15T08:56:47;7.10;99.90
8856;DHT22;4464;50.882;4.730;2023-01-15T08:59:14;7.30;99.90
8856;DHT22;4464;50.882;4.730;2023-01-15T09:01:40;7.20;99.90
8856;DHT22;4464;50.882;4.730;2023-01-15T09:04:06;7.40;99.90
8856;DHT22;4464;50.882;4.730;2023-01-15T09:06:34;7.40;99.90
8856;DHT22;4464;50.882;4.730;2023-01-15T09:09:03;7.20;99.90
8856;DHT22;4464;50.882;4.730;2023-01-15T09:11:28;7.20;99.90
8856;DHT22;4464;50.882;4.730;2023-01-15T09:13:55;7.20;99.90
8856;DHT22;4464;50.882;4.730;2023-01-15T09:16:21;7.20;99.90
8856;DHT22;4464;50.882;4.730;2023-01-15T09:18:52;7.20;99.90
8856;DHT22;4464;50.882;4.730;2023-01-15T09:21:19;7.30;99.90
8856;DHT22;4464;50.882;4.730;2023-01-15T09:23:45;7.60;99.90
8856;DHT22;4464;50.882;4.730;2023-01-15T09:26:35;7.80;99.90
8856;DHT22;4464;50.882;4.730;2023-01-15T09:29:03;8.00;99.90
8856;DHT22;4464;50.882;4.730;2023-01-15T09:31:30;8.10;99.90
8856;DHT22;4464;50.882;4.730;2023-01-15T09:33:59;8.20;99.90
8856;DHT22;4464;50.882;4.730;2023-01-15T09:36:31;7.90;99.90
8856;DHT22;4464;50.882;4.730;2023-01-15T09:38:58;7.60;99.90
8856;DHT22;4464;50.882;4.730;2023-01-15T09:41:30;7.40;99.90
8856;DHT22;4464;50.882;4.730;2023-01-15T09:47:23;7.00;99.90
8856;DHT22;4464;50.882;4.730;2023-01-15T09:55:45;6.90;99.90
8856;DHT22;4464;50.882;4.730;2023-01-15T09:58:18;7.00;99.90
8856;DHT22;4464;50.882;4.730;2023-01-15T10:00:49;7.00;99.90
8856;DHT22;4464;50.882;4.730;2023-01-15T10:05:48;6.90;99.90
8856;DHT22;4464;50.882;4.730;2023-01-15T10:08:32;6.80;99.90
8856;DHT22;4464;50.882;4.730;2023-01-15T10:13:59;6.70;99.90
8856;DHT22;4464;50.882;4.730;2023-01-15T10:16:30;6.80;99.90
8856;DHT22;4464;50.882;4.730;2023-01-15T10:19:00;6.90;99.90
8856;DHT22;4464;50.882;4.730;2023-01-15T10:21:51;6.90;99.90
8856;DHT22;4464;50.882;4.730;2023-01-15T10:24:44;6.80;99.90
8856;DHT22;4464;50.882;4.730;2023-01-15T10:27:18;6.80;99.90
8856;DHT22;4464;50.882;4.730;2023-01-15T10:32:48;6.80;99.90
8856;DHT22;4464;50.882;4.730;2023-01-15T10:35:38;6.70;99.90
8856;DHT22;4464;50.882;4.730;2023-01-15T10:38:38;6.70;99.90
8856;DHT22;4464;50.882;4.730;2023-01-15T10:43:55;6.70;99.90
8856;DHT22;4464;50.882;4.730;2023-01-15T10:46:28;6.60;99.90
8856;DHT22;4464;50.882;4.730;2023-01-15T10:49:05;6.50;99.90
8856;DHT22;4464;50.882;4.730;2023-01-15T10:54:19;6.40;99.90
8856;DHT22;4464;50.882;4.730;2023-01-15T10:57:19;6.60;99.90
8856;DHT22;4464;50.882;4.730;2023-01-15T10:59:50;7.40;99.90
8856;DHT22;4464;50.882;4.730;2023-01-15T11:04:50;8.80;99.90
8856;DHT22;4464;50.882;4.730;2023-01-15T11:07:25;9.10;99.90
8856;DHT22;4464;50.882;4.730;2023-01-15T11:10:02;9.10;99.90
8856;DHT22;4464;50.882;4.730;2023-01-15T11:12:28;9.30;99.90
8856;DHT22;4464;50.882;4.730;2023-01-15T11:15:15;9.60;99.90
8856;DHT22;4464;50.882;4.730;2023-01-15T11:18:01;10.00;99.90
8856;DHT22;4464;50.882;4.730;2023-01-15T11:20:46;9.40;99.90
8856;DHT22;4464;50.882;4.730;2023-01-15T11:23:16;8.70;99.90
8856;DHT22;4464;50.882;4.730;2023-01-15T11:26:01;8.40;99.90
8856;DHT22;4464;50.882;4.730;2023-01-15T11:28:41;9.10;99.90
8856;DHT22;4464;50.882;4.730;2023-01-15T11:31:12;9.10;99.90
8856;DHT22;4464;50.882;4.730;2023-01-15T11:33:39;8.90;99.90
8856;DHT22;4464;50.882;4.730;2023-01-15T11:36:23;8.30;99.90
8856;DHT22;4464;50.882;4.730;2023-01-15T11:38:50;8.30;99.90
8856;DHT22;4464;50.882;4.730;2023-01-15T11:41:33;8.20;99.90
8856;DHT22;4464;50.882;4.730;2023-01-15T11:44:20;8.10;99.90
8856;DHT22;4464;50.882;4.730;2023-01-15T11:47:15;8.20;99.90
8856;DHT22;4464;50.882;4.730;2023-01-15T11:50:00;8.60;99.90
8856;DHT22;4464;50.882;4.730;2023-01-15T11:52:52;8.80;99.90
8856;DHT22;4464;50.882;4.730;2023-01-15T11:55:25;8.70;99.90
8856;DHT22;4464;50.882;4.730;2023-01-15T11:57:52;8.50;99.90
8856;DHT22;4464;50.882;4.730;2023-01-15T12:00:23;8.60;99.90
8856;DHT22;4464;50.882;4.730;2023-01-15T12:02:52;9.20;99.90
8856;DHT22;4464;50.882;4.730;2023-01-15T12:05:30;9.70;99.90
8856;DHT22;4464;50.882;4.730;2023-01-15T12:08:01;9.50;99.90
8856;DHT22;4464;50.882;4.730;2023-01-15T12:10:44;9.10;99.90
8856;DHT22;4464;50.882;4.730;2023-01-15T12:16:22;8.50;99.90
8856;DHT22;4464;50.882;4.730;2023-01-15T12:22:35;8.00;99.90
8856;DHT22;4464;50.882;4.730;2023-01-15T12:28:15;7.90;99.90
8856;DHT22;4464;50.882;4.730;2023-01-15T12:33:44;8.10;99.90
8856;DHT22;4464;50.882;4.730;2023-01-15T12:36:21;8.10;99.90
8856;DHT22;4464;50.882;4.730;2023-01-15T12:41:29;8.20;99.90
8856;DHT22;4464;50.882;4.730;2023-01-15T12:44:20;8.10;99.90
8856;DHT22;4464;50.882;4.730;2023-01-15T12:47:10;7.90;99.90
8856;DHT22;4464;50.882;4.730;2023-01-15T12:55:40;7.60;99.90
8856;DHT22;4464;50.882;4.730;2023-01-15T13:01:25;7.70;99.90
8856;DHT22;4464;50.882;4.730;2023-01-15T13:04:15;7.70;99.90
8856;DHT22;4464;50.882;4.730;2023-01-15T13:06:53;7.80;99.90
8856;DHT22;4464;50.882;4.730;2023-01-15T13:09:36;8.10;99.90
8856;DHT22;4464;50.882;4.730;2023-01-15T13:12:10;8.70;99.90
8856;DHT22;4464;50.882;4.730;2023-01-15T13:14:36;8.60;99.90
8856;DHT22;4464;50.882;4.730;2023-01-15T13:22:31;8.10;99.90
8856;DHT22;4464;50.882;4.730;2023-01-15T13:28:12;8.10;99.90
8856;DHT22;4464;50.882;4.730;2023-01-15T13:33:48;8.10;99.90
8856;DHT22;4464;50.882;4.730;2023-01-15T13:36:21;8.20;99.90
8856;DHT22;4464;50.882;4.730;2023-01-15T13:38:53;8.10;99.90
8856;DHT22;4464;50.882;4.730;2023-01-15T13:41:28;8.10;99.90
8856;DHT22;4464;50.882;4.730;2023-01-15T13:44:21;8.00;99.90
8856;DHT22;4464;50.882;4.730;2023-01-15T13:47:06;7.90;99.90
8856;DHT22;4464;50.882;4.730;2023-01-15T13:49:47;7.90;99.90
8856;DHT22;4464;50.882;4.730;2023-01-15T13:52:29;7.90;99.90
8856;DHT22;4464;50.882;4.730;2023-01-15T13:57:41;7.90;99.90
8856;DHT22;4464;50.882;4.730;2023-01-15T14:00:28;7.90;99.90
8856;DHT22;4464;50.882;4.730;2023-01-15T14:02:56;7.80;99.90
8856;DHT22;4464;50.882;4.730;2023-01-15T14:05:34;7.80;99.90
8856;DHT22;4464;50.882;4.730;2023-01-15T14:08:01;7.70;99.90
8856;DHT22;4464;50.882;4.730;2023-01-15T14:10:41;7.60;99.90
8856;DHT22;4464;50.882;4.730;2023-01-15T14:30:28;7.10;99.90
8856;DHT22;4464;50.882;4.730;2023-01-15T14:35:51;7.00;99.90
8856;DHT22;4464;50.882;4.730;2023-01-15T14:38:22;7.00;99.90
8856;DHT22;4464;50.882;4.730;2023-01-15T14:40:53;6.90;99.90
8856;DHT22;4464;50.882;4.730;2023-01-15T14:43:21;6.90;99.90
8856;DHT22;4464;50.882;4.730;2023-01-15T14:45:52;7.00;99.90
8856;DHT22;4464;50.882;4.730;2023-01-15T14:48:33;7.00;99.90
8856;DHT22;4464;50.882;4.730;2023-01-15T14:51:30;6.90;99.90
8856;DHT22;4464;50.882;4.730;2023-01-15T14:53:58;6.80;99.90
8856;DHT22;4464;50.882;4.730;2023-01-15T14:56:30;6.70;99.90
8856;DHT22;4464;50.882;4.730;2023-01-15T14:59:09;6.80;99.90
8856;DHT22;4464;50.882;4.730;2023-01-15T15:01:59;6.90;99.90
8856;DHT22;4464;50.882;4.730;2023-01-15T15:04:48;6.90;99.90
8856;DHT22;4464;50.882;4.730;2023-01-15T15:07:23;7.00;99.90
8856;DHT22;4464;50.882;4.730;2023-01-15T15:13:14;6.90;99.90
8856;DHT22;4464;50.882;4.730;2023-01-15T15:16:24;6.90;99.90
8856;DHT22;4464;50.882;4.730;2023-01-15T15:19:25;6.80;99.90
8856;DHT22;4464;50.882;4.730;2023-01-15T15:21:58;6.80;99.90
8856;DHT22;4464;50.882;4.730;2023-01-15T15:24:33;6.80;99.90
8856;DHT22;4464;50.882;4.730;2023-01-15T15:27:17;6.70;99.90
8856;DHT22;4464;50.882;4.730;2023-01-15T15:29:46;6.70;99.90
8856;DHT22;4464;50.882;4.730;2023-01-15T15:32:24;6.70;99.90
8856;DHT22;4464;50.882;4.730;2023-01-15T15:34:52;6.70;99.90
8856;DHT22;4464;50.882;4.730;2023-01-15T15:37:22;6.70;99.90
8856;DHT22;4464;50.882;4.730;2023-01-15T15:39:59;6.70;99.90
8856;DHT22;4464;50.882;4.730;2023-01-15T15:42:38;6.70;99.90
8856;DHT22;4464;50.882;4.730;2023-01-15T15:45:28;6.60;99.90
8856;DHT22;4464;50.882;4.730;2023-01-15T15:51:01;6.50;99.90
8856;DHT22;4464;50.882;4.730;2023-01-15T15:53:29;6.50;99.90
8856;DHT22;4464;50.882;4.730;2023-01-15T15:55:57;6.50;99.90
8856;DHT22;4464;50.882;4.730;2023-01-15T15:58:30;6.50;99.90
8856;DHT22;4464;50.882;4.730;2023-01-15T16:00:57;6.50;99.90
8856;DHT22;4464;50.882;4.730;2023-01-15T16:03:25;6.50;99.90
8856;DHT22;4464;50.882;4.730;2023-01-15T16:06:03;6.50;99.90
8856;DHT22;4464;50.882;4.730;2023-01-15T16:08:34;6.60;99.90
8856;DHT22;4464;50.882;4.730;2023-01-15T16:11:06;6.60;99.90
8856;DHT22;4464;50.882;4.730;2023-01-15T16:13:37;6.60;99.90
8856;DHT22;4464;50.882;4.730;2023-01-15T16:16:05;6.60;99.90
8856;DHT22;4464;50.882;4.730;2023-01-15T16:18:41;6.60;99.90
8856;DHT22;4464;50.882;4.730;2023-01-15T16:21:10;6.60;99.90
8856;DHT22;4464;50.882;4.730;2023-01-15T16:23:41;6.60;99.90
8856;DHT22;4464;50.882;4.730;2023-01-15T16:26:21;6.60;99.90
8856;DHT22;4464;50.882;4.730;2023-01-15T16:29:00;6.50;99.90
8856;DHT22;4464;50.882;4.730;2023-01-15T16:31:35;6.40;99.90
8856;DHT22;4464;50.882;4.730;2023-01-15T16:34:02;6.40;99.90
8856;DHT22;4464;50.882;4.730;2023-01-15T16:36:39;6.30;99.90
8856;DHT22;4464;50.882;4.730;2023-01-15T16:39:24;6.20;99.90
8856;DHT22;4464;50.882;4.730;2023-01-15T16:41:56;6.20;99.90
8856;DHT22;4464;50.882;4.730;2023-01-15T16:44:49;6.10;99.90
8856;DHT22;4464;50.882;4.730;2023-01-15T16:47:35;6.00;99.90
8856;DHT22;4464;50.882;4.730;2023-01-15T16:52:54;5.90;99.90
8856;DHT22;4464;50.882;4.730;2023-01-15T16:58:34;5.80;99.90
8856;DHT22;4464;50.882;4.730;2023-01-15T17:01:24;5.80;99.90
8856;DHT22;4464;50.882;4.730;2023-01-15T17:03:51;5.70;99.90
8856;DHT22;4464;50.882;4.730;2023-01-15T17:06:21;5.70;99.90
8856;DHT22;4464;50.882;4.730;2023-01-15T17:08:55;5.70;99.90
8856;DHT22;4464;50.882;4.730;2023-01-15T17:11:29;5.70;99.90
8856;DHT22;4464;50.882;4.730;2023-01-15T17:16:43;5.70;99.90
8856;DHT22;4464;50.882;4.730;2023-01-15T17:19:10;5.70;99.90
8856;DHT22;4464;50.882;4.730;2023-01-15T17:21:37;5.70;99.90
8856;DHT22;4464;50.882;4.730;2023-01-15T17:24:06;5.80;99.90
8856;DHT22;4464;50.882;4.730;2023-01-15T17:26:36;5.90;99.90
8856;DHT22;4464;50.882;4.730;2023-01-15T17:29:04;5.90;99.90
8856;DHT22;4464;50.882;4.730;2023-01-15T17:31:32;5.90;99.90
8856;DHT22;4464;50.882;4.730;2023-01-15T17:34:00;6.00;99.90
8856;DHT22;4464;50.882;4.730;2023-01-15T17:36:27;5.90;99.90
8856;DHT22;4464;50.882;4.730;2023-01-15T17:38:54;5.90;99.90
8856;DHT22;4464;50.882;4.730;2023-01-15T17:41:21;6.00;99.90
8856;DHT22;4464;50.882;4.730;2023-01-15T17:43:48;5.90;99.90
8856;DHT22;4464;50.882;4.730;2023-01-15T17:46:14;6.00;99.90
8856;DHT22;4464;50.882;4.730;2023-01-15T17:48:40;6.00;99.90
8856;DHT22;4464;50.882;4.730;2023-01-15T17:51:10;6.10;99.90
8856;DHT22;4464;50.882;4.730;2023-01-15T17:53:39;6.00;99.90
8856;DHT22;4464;50.882;4.730;2023-01-15T17:56:06;5.90;99.90
8856;DHT22;4464;50.882;4.730;2023-01-15T17:58:50;5.80;99.90
8856;DHT22;4464;50.882;4.730;2023-01-15T18:01:39;5.80;99.90
8856;DHT22;4464;50.882;4.730;2023-01-15T18:04:28;5.80;99.90
8856;DHT22;4464;50.882;4.730;2023-01-15T18:07:15;5.80;99.90
8856;DHT22;4464;50.882;4.730;2023-01-15T18:09:42;5.80;99.90
8856;DHT22;4464;50.882;4.730;2023-01-15T18:12:08;5.80;99.90
8856;DHT22;4464;50.882;4.730;2023-01-15T18:14:34;5.80;99.90
8856;DHT22;4464;50.882;4.730;2023-01-15T18:17:01;5.80;99.90
8856;DHT22;4464;50.882;4.730;2023-01-15T18:19:30;5.80;99.90
8856;DHT22;4464;50.882;4.730;2023-01-15T18:21:56;5.80;99.90
8856;DHT22;4464;50.882;4.730;2023-01-15T18:24:23;5.90;99.90
8856;DHT22;4464;50.882;4.730;2023-01-15T18:26:49;6.10;99.90
8856;DHT22;4464;50.882;4.730;2023-01-15T18:29:18;6.20;99.90
8856;DHT22;4464;50.882;4.730;2023-01-15T18:31:45;6.20;99.90
8856;DHT22;4464;50.882;4.730;2023-01-15T18:34:11;6.30;99.90
8856;DHT22;4464;50.882;4.730;2023-01-15T18:36:37;6.30;99.90
8856;DHT22;4464;50.882;4.730;2023-01-15T18:39:04;6.40;99.90
8856;DHT22;4464;50.882;4.730;2023-01-15T18:41:34;6.50;99.90
8856;DHT22;4464;50.882;4.730;2023-01-15T18:44:12;6.50;99.90
8856;DHT22;4464;50.882;4.730;2023-01-15T18:46:59;6.50;99.90
8856;DHT22;4464;50.882;4.730;2023-01-15T18:49:26;6.50;99.90
8856;DHT22;4464;50.882;4.730;2023-01-15T18:51:53;6.50;99.90